Flight Track Log - Related Links

Times and Time Zones

All times are in EDT time to prevent confusion due to time zone crossing. See the SCX8700 flight status page for this flight to view local times or setup timezone preferences in your user account.

Time Position Orientation Groundspeed Altitude Reporting Facility
EDT Latitude Longitude Course Direction KTS MPH feet Rate Location/Type
Thu 05:53:10 PM 44.9000 -93.2333 338° Northwest 158 182 2,400  Level Minneapolis TRACON
Thu 05:54:00 PM 44.9422 -93.2578 338° Northwest 200 230 4,900 3,107 Climbing Minneapolis Center
Thu 05:55:02 PM 45.0114 -93.2586 360° North 256 295 8,200 3,194 Climbing Minneapolis Center
Thu 05:56:04 PM 45.0919 -93.2486 North 285 328 11,500 3,339 Climbing Minneapolis Center
Thu 05:57:06 PM 45.1875 -93.2369 North 342 394 15,100 3,435 Climbing Minneapolis Center
Thu 05:58:08 PM 45.3094 -93.2167 North 364 419 18,600 3,145 Climbing Minneapolis Center
Thu 05:59:10 PM 45.4111 -93.2469 348° North 373 429 21,600 2,806 Climbing Minneapolis Center
Thu 06:00:12 PM 45.5164 -93.2822 347° North 386 444 24,400 2,468 Climbing Minneapolis Center
Thu 06:01:14 PM 45.6267 -93.3158 348° North 401 461 26,700 1,935 Climbing Minneapolis Center
Thu 06:02:16 PM 45.7147 -93.4106 323° Northwest 402 463 28,400 1,935 Climbing Minneapolis Center
Thu 06:03:18 PM 45.7911 -93.5328 312° West 411 473 30,700 2,323 Climbing Minneapolis Center
Thu 06:04:20 PM 45.8825 -93.6736 313° West 408 470 33,200 1,597 Climbing Minneapolis Center
Thu 06:05:22 PM 45.9575 -93.7947 312° West 408 470 34,000 387 Climbing Minneapolis Center
Thu 06:06:24 PM 46.0322 -93.9150 312° West 408 470 34,000  Level Minneapolis Center
Thu 06:07:26 PM 46.1064 -94.0364 311° West 407 468 34,000  Level Minneapolis Center
Thu 06:08:28 PM 46.1814 -94.1544 313° West 403 464 34,000  Level Minneapolis Center
Thu 06:09:30 PM 46.2639 -94.2881 312° West 402 463 34,000  Level Minneapolis Center
Thu 06:10:32 PM 46.3369 -94.4081 311° West 400 460 34,000  Level Minneapolis Center
Thu 06:11:34 PM 46.4108 -94.5278 312° West 400 460 34,000  Level Minneapolis Center
Thu 06:12:36 PM 46.4833 -94.6481 311° West 399 459 34,000  Level Minneapolis Center
Thu 06:13:38 PM 46.5581 -94.7686 312° West 399 459 34,000  Level Minneapolis Center
Thu 06:14:40 PM 46.6447 -94.9142 311° West 399 459 34,000  Level Minneapolis Center
Thu 06:15:42 PM 46.7178 -95.0369 311° West 400 460 34,000  Level Minneapolis Center
Thu 06:16:44 PM 46.7897 -95.1567 311° West 395 455 34,000 -387 Level Minneapolis Center
Thu 06:17:46 PM 46.8619 -95.2783 311° West 395 455 33,200 -1,355 Descending Minneapolis Center
Thu 06:18:48 PM 46.9311 -95.3967 311° West 390 449 31,200 -1,935 Descending Minneapolis Center
Thu 06:19:50 PM 46.9961 -95.5061 311° West 367 422 29,200 -2,081 Descending Minneapolis Center
Thu 06:20:52 PM 47.0731 -95.6356 311° West 354 407 26,900 -1,984 Descending Minneapolis Center
Thu 06:21:54 PM 47.1306 -95.7356 310° West 333 383 25,100 -1,694 Descending Minneapolis Center
Thu 06:22:56 PM 47.1858 -95.8308 311° West 314 361 23,400 -1,632 Descending Minneapolis Center
Thu 06:23:59 PM 47.2400 -95.9244 310° West 307 353 21,700 -1,584 Descending Minneapolis Center
Thu 06:25:01 PM 47.2947 -96.0178 311° West 305 351 20,100 -1,694 Descending Minneapolis Center
Thu 06:26:03 PM 47.3553 -96.1233 310° West 284 327 18,200 -1,725 Descending Minneapolis Center
Thu 06:26:21 PM 47.3681 -96.1453 311° West 280 322 17,800 -1,300 Descending Minneapolis Center
Thu 06:27:03 PM 47.4028 -96.2103 308° West 278 320 16,900 -1,423 Descending Minneapolis Center
Thu 06:27:58 PM 47.4467 -96.2858 311° West 277 319 15,500 -1,571 Descending Minneapolis Center
Thu 06:29:09 PM 47.5039 -96.3892 309° West 274 315 13,600 -1,574 Descending Minneapolis Center
Thu 06:30:00 PM 47.5369 -96.4681 302° West 269 310 12,300 -1,645 Descending Minneapolis Center
Thu 06:30:11 PM 47.5453 -96.4858 305° West 273 314 11,900 -1,600 Descending Minneapolis Center
Thu 06:31:00 PM 47.5597 -96.5725 284° West 260 299 10,700 -1,548 Descending Minneapolis Center
Thu 06:31:13 PM 47.5642 -96.5942 287° West 259 298 10,300 -873 Descending Minneapolis Center
Thu 06:31:55 PM 47.5731 -96.6631 281° West 255 293 9,900 -774 Descending Minneapolis Center
Thu 06:32:15 PM 47.5806 -96.7011 286° West 257 296 9,500 -1,612 Descending Minneapolis Center
Thu 06:33:02 PM 47.5922 -96.7744 283° West 245 282 8,100 -2,000 Descending Minneapolis Center
Thu 06:33:18 PM 47.5975 -96.8050 284° West 249 287 7,400 -1,574 Descending Minneapolis Center
Thu 06:34:03 PM 47.6189 -96.8783 293° West 261 300 6,500 -1,161 Descending Minneapolis Center
Thu 06:34:20 PM 47.6272 -96.9067 294° West 254 292 6,200 -1,000 Descending Minneapolis Center
Thu 06:35:03 PM 47.6447 -96.9703 292° West 254 292 5,500 -581 Descending Minneapolis Center
Thu 06:35:22 PM 47.6542 -96.9994 296° West 255 293 5,600 -492 Climbing Minneapolis Center
Thu 06:36:04 PM 47.6883 -97.0500 315° West 241 277 5,000 -774 Descending Minneapolis Center
Thu 06:36:24 PM 47.7061 -97.0611 337° Northwest 231 266 4,800 -436 Descending Minneapolis Center
Thu 06:36:59 PM 47.7353 -97.0889 327° Northwest 212 244 4,600 -387 Descending Minneapolis Center
Thu 06:37:26 PM 47.7500 -97.0986 336° Northwest 213 245 4,400 -778 Descending Minneapolis Center
Thu 06:37:53 PM 47.7797 -97.1253 329° Northwest 180 207 3,900 -968 Descending Minneapolis Center
Thu 06:38:28 PM 47.8039 -97.1475 328° Northwest 200 230 3,400 -822 Descending Minneapolis Center
Thu 06:39:06 PM 47.8314 -97.1697 332° Northwest 173 199 2,900 -677 Descending Minneapolis Center
Thu 06:39:30 PM 47.8444 -97.1825 327° Northwest 186 214 2,700 -689 Descending Minneapolis Center
Thu 06:40:07 PM 47.8678 -97.1825 360° North 145 167 2,200 -774 Descending Minneapolis Center
Thu 06:40:32 PM 47.8831 -97.1844 355° North 161 185 1,900 -764 Descending Minneapolis Center
Thu 06:41:02 PM 47.9056 -97.1828 North 134 154 1,500 -677 Descending Minneapolis Center
Thu 06:41:34 PM 47.9208 -97.1842 357° North 147 169 1,200 -563 Descending Minneapolis Center

Login

Don't have an account? Register now (free) for customized features, flight alerts, and more!